sensor_id;sensor_type;location;lat;lon;timestamp;temperature;humidity
5061;DHT22;2549;52.128;21.068;2023-04-21T00:01:41;15.40;67.70
5061;DHT22;2549;52.128;21.068;2023-04-21T00:04:11;15.30;67.70
5061;DHT22;2549;52.128;21.068;2023-04-21T00:06:39;15.30;68.40
5061;DHT22;2549;52.128;21.068;2023-04-21T00:09:07;15.30;68.90
5061;DHT22;2549;52.128;21.068;2023-04-21T00:11:34;15.30;68.50
5061;DHT22;2549;52.128;21.068;2023-04-21T00:14:01;15.20;68.40
5061;DHT22;2549;52.128;21.068;2023-04-21T00:16:28;15.20;68.70
5061;DHT22;2549;52.128;21.068;2023-04-21T00:18:55;15.20;68.90
5061;DHT22;2549;52.128;21.068;2023-04-21T00:21:22;15.20;68.70
5061;DHT22;2549;52.128;21.068;2023-04-21T00:23:48;15.20;69.70
5061;DHT22;2549;52.128;21.068;2023-04-21T00:26:15;15.10;69.10
5061;DHT22;2549;52.128;21.068;2023-04-21T00:28:42;15.10;69.20
5061;DHT22;2549;52.128;21.068;2023-04-21T00:31:09;15.10;69.40
5061;DHT22;2549;52.128;21.068;2023-04-21T00:33:36;15.00;69.30
5061;DHT22;2549;52.128;21.068;2023-04-21T00:36:03;15.00;69.30
5061;DHT22;2549;52.128;21.068;2023-04-21T00:38:30;15.00;69.50
5061;DHT22;2549;52.128;21.068;2023-04-21T00:40:57;14.90;69.80
5061;DHT22;2549;52.128;21.068;2023-04-21T00:43:24;14.80;70.10
5061;DHT22;2549;52.128;21.068;2023-04-21T00:45:53;14.80;69.90
5061;DHT22;2549;52.128;21.068;2023-04-21T00:48:20;14.70;70.40
5061;DHT22;2549;52.128;21.068;2023-04-21T00:50:47;14.60;70.70
5061;DHT22;2549;52.128;21.068;2023-04-21T00:53:14;14.60;70.20
5061;DHT22;2549;52.128;21.068;2023-04-21T00:55:41;14.60;70.50
5061;DHT22;2549;52.128;21.068;2023-04-21T00:58:08;14.60;70.40
5061;DHT22;2549;52.128;21.068;2023-04-21T01:00:36;14.60;70.90
5061;DHT22;2549;52.128;21.068;2023-04-21T01:03:03;14.60;71.50
5061;DHT22;2549;52.128;21.068;2023-04-21T01:05:31;14.60;70.70
5061;DHT22;2549;52.128;21.068;2023-04-21T01:07:59;14.60;70.90
5061;DHT22;2549;52.128;21.068;2023-04-21T01:10:26;14.60;70.90
5061;DHT22;2549;52.128;21.068;2023-04-21T01:12:53;14.50;70.90
5061;DHT22;2549;52.128;21.068;2023-04-21T01:15:20;14.50;70.90
5061;DHT22;2549;52.128;21.068;2023-04-21T01:17:46;14.50;71.00
5061;DHT22;2549;52.128;21.068;2023-04-21T01:20:15;14.50;71.30
5061;DHT22;2549;52.128;21.068;2023-04-21T01:22:42;14.40;71.10
5061;DHT22;2549;52.128;21.068;2023-04-21T01:25:10;14.50;71.30
5061;DHT22;2549;52.128;21.068;2023-04-21T01:27:37;14.40;71.60
5061;DHT22;2549;52.128;21.068;2023-04-21T01:30:06;14.40;71.80
5061;DHT22;2549;52.128;21.068;2023-04-21T01:32:35;14.40;71.20
5061;DHT22;2549;52.128;21.068;2023-04-21T01:35:02;14.40;71.50
5061;DHT22;2549;52.128;21.068;2023-04-21T01:37:31;14.30;71.90
5061;DHT22;2549;52.128;21.068;2023-04-21T01:40:00;14.20;72.00
5061;DHT22;2549;52.128;21.068;2023-04-21T01:42:28;14.20;72.00
5061;DHT22;2549;52.128;21.068;2023-04-21T01:44:56;14.10;72.10
5061;DHT22;2549;52.128;21.068;2023-04-21T01:47:23;14.10;71.70
5061;DHT22;2549;52.128;21.068;2023-04-21T01:49:51;14.10;72.40
5061;DHT22;2549;52.128;21.068;2023-04-21T01:52:18;14.10;72.30
5061;DHT22;2549;52.128;21.068;2023-04-21T01:54:45;14.10;72.60
5061;DHT22;2549;52.128;21.068;2023-04-21T01:57:12;14.10;72.10
5061;DHT22;2549;52.128;21.068;2023-04-21T01:59:39;14.00;72.40
5061;DHT22;2549;52.128;21.068;2023-04-21T02:02:06;14.00;72.60
5061;DHT22;2549;52.128;21.068;2023-04-21T02:04:33;14.00;72.20
5061;DHT22;2549;52.128;21.068;2023-04-21T02:07:00;13.90;72.80
5061;DHT22;2549;52.128;21.068;2023-04-21T02:09:27;13.90;72.60
5061;DHT22;2549;52.128;21.068;2023-04-21T02:11:55;13.80;72.70
5061;DHT22;2549;52.128;21.068;2023-04-21T02:14:24;13.80;72.80
5061;DHT22;2549;52.128;21.068;2023-04-21T02:16:51;13.90;73.20
5061;DHT22;2549;52.128;21.068;2023-04-21T02:19:18;13.80;73.40
5061;DHT22;2549;52.128;21.068;2023-04-21T02:21:46;13.80;73.10
5061;DHT22;2549;52.128;21.068;2023-04-21T02:24:13;13.80;72.60
5061;DHT22;2549;52.128;21.068;2023-04-21T02:26:39;13.70;72.90
5061;DHT22;2549;52.128;21.068;2023-04-21T02:29:07;13.70;73.20
5061;DHT22;2549;52.128;21.068;2023-04-21T02:31:34;13.70;73.00
5061;DHT22;2549;52.128;21.068;2023-04-21T02:34:20;13.70;73.40
5061;DHT22;2549;52.128;21.068;2023-04-21T02:36:47;13.60;73.30
5061;DHT22;2549;52.128;21.068;2023-04-21T02:39:14;13.60;73.30
5061;DHT22;2549;52.128;21.068;2023-04-21T02:41:41;13.60;73.50
5061;DHT22;2549;52.128;21.068;2023-04-21T02:44:07;13.50;73.60
5061;DHT22;2549;52.128;21.068;2023-04-21T02:46:34;13.50;73.40
5061;DHT22;2549;52.128;21.068;2023-04-21T02:49:01;13.50;73.50
5061;DHT22;2549;52.128;21.068;2023-04-21T02:51:28;13.40;73.80
5061;DHT22;2549;52.128;21.068;2023-04-21T02:53:55;13.30;73.90
5061;DHT22;2549;52.128;21.068;2023-04-21T02:56:22;13.30;74.50
5061;DHT22;2549;52.128;21.068;2023-04-21T02:58:49;13.30;74.30
5061;DHT22;2549;52.128;21.068;2023-04-21T03:01:16;13.30;73.90
5061;DHT22;2549;52.128;21.068;2023-04-21T03:03:43;13.20;74.60
5061;DHT22;2549;52.128;21.068;2023-04-21T03:06:09;13.20;74.50
5061;DHT22;2549;52.128;21.068;2023-04-21T03:08:36;13.20;74.80
5061;DHT22;2549;52.128;21.068;2023-04-21T03:11:04;13.20;74.50
5061;DHT22;2549;52.128;21.068;2023-04-21T03:13:31;13.20;74.60
5061;DHT22;2549;52.128;21.068;2023-04-21T03:15:57;13.10;74.70
5061;DHT22;2549;52.128;21.068;2023-04-21T03:18:24;13.10;75.10
5061;DHT22;2549;52.128;21.068;2023-04-21T03:20:51;13.20;74.40
5061;DHT22;2549;52.128;21.068;2023-04-21T03:23:18;13.20;74.50
5061;DHT22;2549;52.128;21.068;2023-04-21T03:25:45;13.20;74.50
5061;DHT22;2549;52.128;21.068;2023-04-21T03:28:12;13.20;75.00
5061;DHT22;2549;52.128;21.068;2023-04-21T03:30:39;13.20;74.70
5061;DHT22;2549;52.128;21.068;2023-04-21T03:33:05;13.10;75.00
5061;DHT22;2549;52.128;21.068;2023-04-21T03:35:32;13.00;74.80
5061;DHT22;2549;52.128;21.068;2023-04-21T03:37:59;13.00;75.20
5061;DHT22;2549;52.128;21.068;2023-04-21T03:40:29;12.90;75.20
5061;DHT22;2549;52.128;21.068;2023-04-21T03:42:56;13.00;75.00
5061;DHT22;2549;52.128;21.068;2023-04-21T03:45:23;13.00;74.70
5061;DHT22;2549;52.128;21.068;2023-04-21T03:47:55;12.90;75.40
5061;DHT22;2549;52.128;21.068;2023-04-21T03:50:22;13.00;75.40
5061;DHT22;2549;52.128;21.068;2023-04-21T03:52:49;12.90;75.00
5061;DHT22;2549;52.128;21.068;2023-04-21T03:55:16;12.90;75.70
5061;DHT22;2549;52.128;21.068;2023-04-21T03:57:43;12.90;75.20
5061;DHT22;2549;52.128;21.068;2023-04-21T04:00:10;12.90;75.20
5061;DHT22;2549;52.128;21.068;2023-04-21T04:02:38;12.90;75.20
5061;DHT22;2549;52.128;21.068;2023-04-21T04:05:06;12.80;75.70
5061;DHT22;2549;52.128;21.068;2023-04-21T04:07:33;12.90;75.20
5061;DHT22;2549;52.128;21.068;2023-04-21T04:10:00;12.80;76.70
5061;DHT22;2549;52.128;21.068;2023-04-21T04:12:27;12.80;75.50
5061;DHT22;2549;52.128;21.068;2023-04-21T04:14:54;12.80;76.00
5061;DHT22;2549;52.128;21.068;2023-04-21T04:17:20;12.70;75.90
5061;DHT22;2549;52.128;21.068;2023-04-21T04:19:47;12.70;76.60
5061;DHT22;2549;52.128;21.068;2023-04-21T04:22:14;12.60;76.00
5061;DHT22;2549;52.128;21.068;2023-04-21T04:24:41;12.60;76.20
5061;DHT22;2549;52.128;21.068;2023-04-21T04:27:10;12.60;76.40
5061;DHT22;2549;52.128;21.068;2023-04-21T04:29:40;12.70;76.40
5061;DHT22;2549;52.128;21.068;2023-04-21T04:32:10;12.70;76.20
5061;DHT22;2549;52.128;21.068;2023-04-21T04:34:37;12.60;76.50
5061;DHT22;2549;52.128;21.068;2023-04-21T04:37:04;12.70;76.10
5061;DHT22;2549;52.128;21.068;2023-04-21T04:39:32;12.70;75.70
5061;DHT22;2549;52.128;21.068;2023-04-21T04:41:59;12.70;76.00
5061;DHT22;2549;52.128;21.068;2023-04-21T04:44:27;12.70;76.00
5061;DHT22;2549;52.128;21.068;2023-04-21T04:46:54;12.70;76.70
5061;DHT22;2549;52.128;21.068;2023-04-21T04:49:21;12.70;76.30
5061;DHT22;2549;52.128;21.068;2023-04-21T04:51:49;12.70;76.80
5061;DHT22;2549;52.128;21.068;2023-04-21T04:54:16;12.70;76.20
5061;DHT22;2549;52.128;21.068;2023-04-21T04:56:43;12.70;76.60
5061;DHT22;2549;52.128;21.068;2023-04-21T04:59:10;12.70;76.20
5061;DHT22;2549;52.128;21.068;2023-04-21T05:01:37;12.80;75.50
5061;DHT22;2549;52.128;21.068;2023-04-21T05:04:06;12.80;75.30
5061;DHT22;2549;52.128;21.068;2023-04-21T05:06:33;12.90;75.80
5061;DHT22;2549;52.128;21.068;2023-04-21T05:09:00;12.90;75.60
5061;DHT22;2549;52.128;21.068;2023-04-21T05:11:27;13.00;75.20
5061;DHT22;2549;52.128;21.068;2023-04-21T05:13:54;13.00;74.90
5061;DHT22;2549;52.128;21.068;2023-04-21T05:16:21;13.00;75.40
5061;DHT22;2549;52.128;21.068;2023-04-21T05:18:48;13.00;75.20
5061;DHT22;2549;52.128;21.068;2023-04-21T05:21:26;13.10;75.30
5061;DHT22;2549;52.128;21.068;2023-04-21T05:23:57;13.10;74.70
5061;DHT22;2549;52.128;21.068;2023-04-21T05:26:25;13.00;74.70
5061;DHT22;2549;52.128;21.068;2023-04-21T05:28:54;13.10;74.70
5061;DHT22;2549;52.128;21.068;2023-04-21T05:31:22;13.10;74.50
5061;DHT22;2549;52.128;21.068;2023-04-21T05:34:10;13.10;74.60
5061;DHT22;2549;52.128;21.068;2023-04-21T05:36:40;13.10;74.00
5061;DHT22;2549;52.128;21.068;2023-04-21T05:39:08;13.10;74.90
5061;DHT22;2549;52.128;21.068;2023-04-21T05:41:35;13.20;74.70
5061;DHT22;2549;52.128;21.068;2023-04-21T05:44:01;13.30;74.50
5061;DHT22;2549;52.128;21.068;2023-04-21T05:46:28;13.30;74.00
5061;DHT22;2549;52.128;21.068;2023-04-21T05:48:55;13.30;74.00
5061;DHT22;2549;52.128;21.068;2023-04-21T05:51:22;13.30;74.10
5061;DHT22;2549;52.128;21.068;2023-04-21T05:53:49;13.40;73.40
5061;DHT22;2549;52.128;21.068;2023-04-21T05:56:16;13.30;73.60
5061;DHT22;2549;52.128;21.068;2023-04-21T05:58:43;13.40;74.30
5061;DHT22;2549;52.128;21.068;2023-04-21T06:01:10;13.50;74.20
5061;DHT22;2549;52.128;21.068;2023-04-21T06:03:37;13.60;73.40
5061;DHT22;2549;52.128;21.068;2023-04-21T06:06:05;13.60;72.80
5061;DHT22;2549;52.128;21.068;2023-04-21T06:08:32;13.60;72.80
5061;DHT22;2549;52.128;21.068;2023-04-21T06:10:59;13.70;72.50
5061;DHT22;2549;52.128;21.068;2023-04-21T06:13:26;13.70;72.20
5061;DHT22;2549;52.128;21.068;2023-04-21T06:15:53;13.80;71.70
5061;DHT22;2549;52.128;21.068;2023-04-21T06:18:21;13.80;71.60
5061;DHT22;2549;52.128;21.068;2023-04-21T06:20:51;13.90;71.30
5061;DHT22;2549;52.128;21.068;2023-04-21T06:23:19;14.00;71.70
5061;DHT22;2549;52.128;21.068;2023-04-21T06:25:46;14.00;72.30
5061;DHT22;2549;52.128;21.068;2023-04-21T06:28:13;14.00;71.50
5061;DHT22;2549;52.128;21.068;2023-04-21T06:30:40;14.00;71.50
5061;DHT22;2549;52.128;21.068;2023-04-21T06:33:07;14.10;70.40
5061;DHT22;2549;52.128;21.068;2023-04-21T06:35:33;14.10;71.40
5061;DHT22;2549;52.128;21.068;2023-04-21T06:38:00;14.20;71.90
5061;DHT22;2549;52.128;21.068;2023-04-21T06:40:28;14.20;70.60
5061;DHT22;2549;52.128;21.068;2023-04-21T06:42:55;14.30;70.20
5061;DHT22;2549;52.128;21.068;2023-04-21T06:45:21;14.30;69.20
5061;DHT22;2549;52.128;21.068;2023-04-21T06:47:48;14.30;69.00
5061;DHT22;2549;52.128;21.068;2023-04-21T06:50:15;14.30;70.00
5061;DHT22;2549;52.128;21.068;2023-04-21T06:52:42;14.30;69.40
5061;DHT22;2549;52.128;21.068;2023-04-21T06:55:09;14.40;69.50
5061;DHT22;2549;52.128;21.068;2023-04-21T06:57:35;14.60;69.40
5061;DHT22;2549;52.128;21.068;2023-04-21T07:00:04;14.60;69.80
5061;DHT22;2549;52.128;21.068;2023-04-21T07:02:31;14.70;69.50
5061;DHT22;2549;52.128;21.068;2023-04-21T07:04:58;14.70;69.00
5061;DHT22;2549;52.128;21.068;2023-04-21T07:07:25;14.80;69.10
5061;DHT22;2549;52.128;21.068;2023-04-21T07:09:52;14.80;68.90
5061;DHT22;2549;52.128;21.068;2023-04-21T07:12:19;14.90;68.90
5061;DHT22;2549;52.128;21.068;2023-04-21T07:14:46;14.90;68.80
5061;DHT22;2549;52.128;21.068;2023-04-21T07:17:13;15.00;67.20
5061;DHT22;2549;52.128;21.068;2023-04-21T07:19:39;15.00;68.20
5061;DHT22;2549;52.128;21.068;2023-04-21T07:22:06;15.10;66.00
5061;DHT22;2549;52.128;21.068;2023-04-21T07:24:33;15.10;65.80
5061;DHT22;2549;52.128;21.068;2023-04-21T07:27:01;15.30;66.50
5061;DHT22;2549;52.128;21.068;2023-04-21T07:29:28;15.30;63.30
5061;DHT22;2549;52.128;21.068;2023-04-21T07:31:55;15.30;64.10
5061;DHT22;2549;52.128;21.068;2023-04-21T07:34:24;15.40;63.90
5061;DHT22;2549;52.128;21.068;2023-04-21T07:36:51;15.40;63.30
5061;DHT22;2549;52.128;21.068;2023-04-21T07:39:18;15.50;64.30
5061;DHT22;2549;52.128;21.068;2023-04-21T07:41:45;15.50;64.00
5061;DHT22;2549;52.128;21.068;2023-04-21T07:44:12;15.60;62.40
5061;DHT22;2549;52.128;21.068;2023-04-21T07:46:39;15.70;62.60
5061;DHT22;2549;52.128;21.068;2023-04-21T07:49:06;15.70;62.40
5061;DHT22;2549;52.128;21.068;2023-04-21T07:51:32;15.80;61.50
5061;DHT22;2549;52.128;21.068;2023-04-21T07:53:59;15.80;59.80
5061;DHT22;2549;52.128;21.068;2023-04-21T07:56:27;15.80;59.80
5061;DHT22;2549;52.128;21.068;2023-04-21T07:58:53;15.90;60.50
5061;DHT22;2549;52.128;21.068;2023-04-21T08:01:20;16.00;60.20
5061;DHT22;2549;52.128;21.068;2023-04-21T08:03:49;16.00;59.90
5061;DHT22;2549;52.128;21.068;2023-04-21T08:06:16;16.10;59.70
5061;DHT22;2549;52.128;21.068;2023-04-21T08:08:43;16.20;59.70
5061;DHT22;2549;52.128;21.068;2023-04-21T08:11:10;16.20;58.90
5061;DHT22;2549;52.128;21.068;2023-04-21T08:13:37;16.30;58.50
5061;DHT22;2549;52.128;21.068;2023-04-21T08:16:04;16.40;59.50
5061;DHT22;2549;52.128;21.068;2023-04-21T08:18:30;16.40;57.80
5061;DHT22;2549;52.128;21.068;2023-04-21T08:20:57;16.50;57.80
5061;DHT22;2549;52.128;21.068;2023-04-21T08:23:24;16.50;57.80
5061;DHT22;2549;52.128;21.068;2023-04-21T08:25:51;16.50;56.30
5061;DHT22;2549;52.128;21.068;2023-04-21T08:28:18;16.50;56.50
5061;DHT22;2549;52.128;21.068;2023-04-21T08:30:45;16.60;56.70
5061;DHT22;2549;52.128;21.068;2023-04-21T08:33:12;16.60;55.60
5061;DHT22;2549;52.128;21.068;2023-04-21T08:35:39;16.70;54.60
5061;DHT22;2549;52.128;21.068;2023-04-21T08:38:28;16.70;55.40
5061;DHT22;2549;52.128;21.068;2023-04-21T08:40:58;16.80;55.10
5061;DHT22;2549;52.128;21.068;2023-04-21T08:43:27;16.90;54.80
5061;DHT22;2549;52.128;21.068;2023-04-21T08:45:54;16.90;53.50
5061;DHT22;2549;52.128;21.068;2023-04-21T08:48:22;16.90;53.30
5061;DHT22;2549;52.128;21.068;2023-04-21T08:50:50;16.90;54.50
5061;DHT22;2549;52.128;21.068;2023-04-21T08:53:17;17.10;54.70
5061;DHT22;2549;52.128;21.068;2023-04-21T08:55:44;17.10;55.00
5061;DHT22;2549;52.128;21.068;2023-04-21T08:58:22;17.10;51.70
5061;DHT22;2549;52.128;21.068;2023-04-21T09:00:49;17.10;53.00
5061;DHT22;2549;52.128;21.068;2023-04-21T09:03:26;17.10;51.60
5061;DHT22;2549;52.128;21.068;2023-04-21T09:06:01;17.10;51.40
5061;DHT22;2549;52.128;21.068;2023-04-21T09:08:30;17.20;50.80
5061;DHT22;2549;52.128;21.068;2023-04-21T09:10:59;17.30;52.10
5061;DHT22;2549;52.128;21.068;2023-04-21T09:13:34;17.40;51.80
5061;DHT22;2549;52.128;21.068;2023-04-21T09:16:14;17.40;52.20
5061;DHT22;2549;52.128;21.068;2023-04-21T09:18:43;17.40;51.10
5061;DHT22;2549;52.128;21.068;2023-04-21T09:21:15;17.50;52.20
5061;DHT22;2549;52.128;21.068;2023-04-21T09:23:50;17.40;51.30
5061;DHT22;2549;52.128;21.068;2023-04-21T09:26:19;17.50;52.30
5061;DHT22;2549;52.128;21.068;2023-04-21T09:28:49;17.50;51.80
5061;DHT22;2549;52.128;21.068;2023-04-21T09:31:21;17.40;52.00
5061;DHT22;2549;52.128;21.068;2023-04-21T09:33:54;17.50;52.90
5061;DHT22;2549;52.128;21.068;2023-04-21T09:36:28;17.70;52.90
5061;DHT22;2549;52.128;21.068;2023-04-21T09:38:57;17.80;52.40
5061;DHT22;2549;52.128;21.068;2023-04-21T09:41:44;17.90;52.40
5061;DHT22;2549;52.128;21.068;2023-04-21T09:44:11;17.90;53.70
5061;DHT22;2549;52.128;21.068;2023-04-21T09:46:39;17.90;53.10
5061;DHT22;2549;52.128;21.068;2023-04-21T09:49:11;17.80;52.80
5061;DHT22;2549;52.128;21.068;2023-04-21T09:51:39;17.80;52.50
5061;DHT22;2549;52.128;21.068;2023-04-21T09:54:30;17.90;52.00
5061;DHT22;2549;52.128;21.068;2023-04-21T09:57:05;17.90;51.60
5061;DHT22;2549;52.128;21.068;2023-04-21T09:59:59;17.90;52.00
5061;DHT22;2549;52.128;21.068;2023-04-21T10:02:30;17.90;53.10
5061;DHT22;2549;52.128;21.068;2023-04-21T10:05:03;18.00;52.80
5061;DHT22;2549;52.128;21.068;2023-04-21T10:07:43;18.10;52.50
5061;DHT22;2549;52.128;21.068;2023-04-21T10:10:23;18.10;51.20
5061;DHT22;2549;52.128;21.068;2023-04-21T10:13:24;18.10;52.00
5061;DHT22;2549;52.128;21.068;2023-04-21T10:16:04;18.10;51.00
5061;DHT22;2549;52.128;21.068;2023-04-21T10:18:41;18.20;51.30
5061;DHT22;2549;52.128;21.068;2023-04-21T10:24:30;18.20;50.70
5061;DHT22;2549;52.128;21.068;2023-04-21T10:27:33;18.30;50.20
5061;DHT22;2549;52.128;21.068;2023-04-21T10:30:24;18.30;49.00
5061;DHT22;2549;52.128;21.068;2023-04-21T10:33:22;18.40;49.80
5061;DHT22;2549;52.128;21.068;2023-04-21T10:36:23;18.40;49.80
5061;DHT22;2549;52.128;21.068;2023-04-21T10:39:41;18.30;49.20
5061;DHT22;2549;52.128;21.068;2023-04-21T10:45:09;18.40;50.10
5061;DHT22;2549;52.128;21.068;2023-04-21T10:48:18;18.50;50.00
5061;DHT22;2549;52.128;21.068;2023-04-21T10:50:48;18.50;50.10
5061;DHT22;2549;52.128;21.068;2023-04-21T10:53:40;18.60;49.70
5061;DHT22;2549;52.128;21.068;2023-04-21T10:56:13;18.60;48.60
5061;DHT22;2549;52.128;21.068;2023-04-21T10:58:48;18.60;48.60
5061;DHT22;2549;52.128;21.068;2023-04-21T11:01:29;18.60;47.80
5061;DHT22;2549;52.128;21.068;2023-04-21T11:04:02;18.60;48.20
5061;DHT22;2549;52.128;21.068;2023-04-21T11:10:17;18.70;47.90
5061;DHT22;2549;52.128;21.068;2023-04-21T11:13:01;18.80;49.90
5061;DHT22;2549;52.128;21.068;2023-04-21T11:16:04;18.80;47.00
5061;DHT22;2549;52.128;21.068;2023-04-21T11:18:44;18.90;48.30
5061;DHT22;2549;52.128;21.068;2023-04-21T11:21:31;18.90;48.40
5061;DHT22;2549;52.128;21.068;2023-04-21T11:24:36;18.90;47.90
5061;DHT22;2549;52.128;21.068;2023-04-21T11:30:02;19.00;47.60
5061;DHT22;2549;52.128;21.068;2023-04-21T11:32:54;18.80;46.30
5061;DHT22;2549;52.128;21.068;2023-04-21T11:35:30;18.90;47.50
5061;DHT22;2549;52.128;21.068;2023-04-21T11:38:20;19.00;47.10
5061;DHT22;2549;52.128;21.068;2023-04-21T11:41:27;19.10;48.00
5061;DHT22;2549;52.128;21.068;2023-04-21T11:44:08;19.10;46.50
5061;DHT22;2549;52.128;21.068;2023-04-21T11:47:10;19.10;47.40
5061;DHT22;2549;52.128;21.068;2023-04-21T11:49:56;19.30;48.00
5061;DHT22;2549;52.128;21.068;2023-04-21T11:52:55;19.20;46.50
5061;DHT22;2549;52.128;21.068;2023-04-21T11:55:46;19.30;47.90
5061;DHT22;2549;52.128;21.068;2023-04-21T11:58:52;19.30;47.30
5061;DHT22;2549;52.128;21.068;2023-04-21T12:04:18;19.30;47.00
5061;DHT22;2549;52.128;21.068;2023-04-21T12:06:58;19.30;47.60
5061;DHT22;2549;52.128;21.068;2023-04-21T12:09:26;19.40;48.20
5061;DHT22;2549;52.128;21.068;2023-04-21T12:11:57;19.50;48.00
5061;DHT22;2549;52.128;21.068;2023-04-21T12:14:25;19.50;47.80
5061;DHT22;2549;52.128;21.068;2023-04-21T12:16:56;19.50;48.30
5061;DHT22;2549;52.128;21.068;2023-04-21T12:19:40;19.60;48.10
5061;DHT22;2549;52.128;21.068;2023-04-21T12:22:08;19.60;47.30
5061;DHT22;2549;52.128;21.068;2023-04-21T12:24:36;19.60;46.80
5061;DHT22;2549;52.128;21.068;2023-04-21T12:27:03;19.60;46.40
5061;DHT22;2549;52.128;21.068;2023-04-21T12:29:31;19.70;47.20
5061;DHT22;2549;52.128;21.068;2023-04-21T12:32:01;19.70;46.70
5061;DHT22;2549;52.128;21.068;2023-04-21T12:34:28;19.80;46.40
5061;DHT22;2549;52.128;21.068;2023-04-21T12:36:55;19.80;45.70
5061;DHT22;2549;52.128;21.068;2023-04-21T12:39:22;19.80;45.70
5061;DHT22;2549;52.128;21.068;2023-04-21T12:41:48;19.80;45.10
5061;DHT22;2549;52.128;21.068;2023-04-21T12:44:15;19.90;45.40
5061;DHT22;2549;52.128;21.068;2023-04-21T12:46:42;19.90;44.40
5061;DHT22;2549;52.128;21.068;2023-04-21T12:49:09;20.00;43.90
5061;DHT22;2549;52.128;21.068;2023-04-21T12:51:37;19.90;45.80
5061;DHT22;2549;52.128;21.068;2023-04-21T12:54:04;19.80;44.70
5061;DHT22;2549;52.128;21.068;2023-04-21T12:56:30;19.80;45.70
5061;DHT22;2549;52.128;21.068;2023-04-21T12:58:57;19.90;45.40
5061;DHT22;2549;52.128;21.068;2023-04-21T13:01:24;20.00;44.20
5061;DHT22;2549;52.128;21.068;2023-04-21T13:03:51;20.00;43.90
5061;DHT22;2549;52.128;21.068;2023-04-21T13:06:18;20.10;44.60
5061;DHT22;2549;52.128;21.068;2023-04-21T13:08:45;20.10;44.00
5061;DHT22;2549;52.128;21.068;2023-04-21T13:11:12;20.10;43.50
5061;DHT22;2549;52.128;21.068;2023-04-21T13:13:39;20.00;44.10
5061;DHT22;2549;52.128;21.068;2023-04-21T13:16:06;19.90;44.40
5061;DHT22;2549;52.128;21.068;2023-04-21T13:18:33;20.00;44.00
5061;DHT22;2549;52.128;21.068;2023-04-21T13:21:00;20.00;44.00
5061;DHT22;2549;52.128;21.068;2023-04-21T13:23:27;20.10;43.80
5061;DHT22;2549;52.128;21.068;2023-04-21T13:25:54;20.10;43.70
5061;DHT22;2549;52.128;21.068;2023-04-21T13:28:21;20.20;44.30
5061;DHT22;2549;52.128;21.068;2023-04-21T13:30:50;20.20;44.60
5061;DHT22;2549;52.128;21.068;2023-04-21T13:33:19;20.20;44.10
5061;DHT22;2549;52.128;21.068;2023-04-21T13:35:46;20.30;43.90
5061;DHT22;2549;52.128;21.068;2023-04-21T13:38:13;20.30;43.90
5061;DHT22;2549;52.128;21.068;2023-04-21T13:40:40;20.30;43.40
5061;DHT22;2549;52.128;21.068;2023-04-21T13:43:07;20.20;43.80
5061;DHT22;2549;52.128;21.068;2023-04-21T13:45:34;20.30;44.00
5061;DHT22;2549;52.128;21.068;2023-04-21T13:48:01;20.30;42.90
5061;DHT22;2549;52.128;21.068;2023-04-21T13:50:28;20.30;43.40
5061;DHT22;2549;52.128;21.068;2023-04-21T13:52:54;20.40;43.40
5061;DHT22;2549;52.128;21.068;2023-04-21T13:55:21;20.40;43.10
5061;DHT22;2549;52.128;21.068;2023-04-21T13:57:48;20.40;43.50
5061;DHT22;2549;52.128;21.068;2023-04-21T14:00:15;20.40;43.20
5061;DHT22;2549;52.128;21.068;2023-04-21T14:02:42;20.40;42.50
5061;DHT22;2549;52.128;21.068;2023-04-21T14:05:10;20.30;41.90
5061;DHT22;2549;52.128;21.068;2023-04-21T14:07:37;20.40;42.70
5061;DHT22;2549;52.128;21.068;2023-04-21T14:10:04;20.50;43.60
5061;DHT22;2549;52.128;21.068;2023-04-21T14:12:31;20.60;43.60
5061;DHT22;2549;52.128;21.068;2023-04-21T14:14:58;20.50;43.30
5061;DHT22;2549;52.128;21.068;2023-04-21T14:17:25;20.50;43.50
5061;DHT22;2549;52.128;21.068;2023-04-21T14:19:52;20.50;43.40
5061;DHT22;2549;52.128;21.068;2023-04-21T14:22:20;20.40;43.30
5061;DHT22;2549;52.128;21.068;2023-04-21T14:24:47;20.30;43.50
5061;DHT22;2549;52.128;21.068;2023-04-21T14:27:14;20.40;43.50
5061;DHT22;2549;52.128;21.068;2023-04-21T14:29:41;20.50;42.90
5061;DHT22;2549;52.128;21.068;2023-04-21T14:32:08;20.40;42.70
5061;DHT22;2549;52.128;21.068;2023-04-21T14:34:35;20.40;42.00
5061;DHT22;2549;52.128;21.068;2023-04-21T14:37:02;20.40;42.70
5061;DHT22;2549;52.128;21.068;2023-04-21T14:39:29;20.50;43.30
5061;DHT22;2549;52.128;21.068;2023-04-21T14:41:55;20.50;43.10
5061;DHT22;2549;52.128;21.068;2023-04-21T14:44:22;20.40;43.20
5061;DHT22;2549;52.128;21.068;2023-04-21T14:46:49;20.50;43.30
5061;DHT22;2549;52.128;21.068;2023-04-21T14:49:26;20.50;42.10
5061;DHT22;2549;52.128;21.068;2023-04-21T14:51:53;20.50;43.20
5061;DHT22;2549;52.128;21.068;2023-04-21T14:54:20;20.50;42.90
5061;DHT22;2549;52.128;21.068;2023-04-21T14:56:47;20.50;42.90
5061;DHT22;2549;52.128;21.068;2023-04-21T14:59:14;20.50;43.20
5061;DHT22;2549;52.128;21.068;2023-04-21T15:01:40;20.50;43.00
5061;DHT22;2549;52.128;21.068;2023-04-21T15:04:07;20.50;43.00
5061;DHT22;2549;52.128;21.068;2023-04-21T15:06:35;20.50;44.30
5061;DHT22;2549;52.128;21.068;2023-04-21T15:09:02;20.50;43.60
5061;DHT22;2549;52.128;21.068;2023-04-21T15:11:30;20.40;43.30
5061;DHT22;2549;52.128;21.068;2023-04-21T15:13:57;20.50;43.50
5061;DHT22;2549;52.128;21.068;2023-04-21T15:16:24;20.50;43.80
5061;DHT22;2549;52.128;21.068;2023-04-21T15:18:51;20.40;43.30
5061;DHT22;2549;52.128;21.068;2023-04-21T15:21:18;20.50;43.40
5061;DHT22;2549;52.128;21.068;2023-04-21T15:23:45;20.50;44.40
5061;DHT22;2549;52.128;21.068;2023-04-21T15:26:12;20.50;44.70
5061;DHT22;2549;52.128;21.068;2023-04-21T15:28:39;20.50;43.70
5061;DHT22;2549;52.128;21.068;2023-04-21T15:31:06;20.40;44.10
5061;DHT22;2549;52.128;21.068;2023-04-21T15:33:35;20.40;44.10
5061;DHT22;2549;52.128;21.068;2023-04-21T15:36:02;20.30;43.80
5061;DHT22;2549;52.128;21.068;2023-04-21T15:38:29;20.40;43.50
5061;DHT22;2549;52.128;21.068;2023-04-21T15:40:56;20.40;43.70
5061;DHT22;2549;52.128;21.068;2023-04-21T15:43:27;20.40;43.80
5061;DHT22;2549;52.128;21.068;2023-04-21T15:45:54;20.40;43.50
5061;DHT22;2549;52.128;21.068;2023-04-21T15:48:21;20.40;42.60
5061;DHT22;2549;52.128;21.068;2023-04-21T15:50:48;20.50;43.40
5061;DHT22;2549;52.128;21.068;2023-04-21T15:53:15;20.50;43.30
5061;DHT22;2549;52.128;21.068;2023-04-21T15:55:45;20.50;42.60
5061;DHT22;2549;52.128;21.068;2023-04-21T15:58:12;20.50;42.70
5061;DHT22;2549;52.128;21.068;2023-04-21T16:00:40;20.50;42.90
5061;DHT22;2549;52.128;21.068;2023-04-21T16:03:09;20.50;43.30
5061;DHT22;2549;52.128;21.068;2023-04-21T16:05:36;20.50;43.20
5061;DHT22;2549;52.128;21.068;2023-04-21T16:08:04;20.40;43.00
5061;DHT22;2549;52.128;21.068;2023-04-21T16:10:31;20.30;42.90
5061;DHT22;2549;52.128;21.068;2023-04-21T16:12:57;20.30;43.30
5061;DHT22;2549;52.128;21.068;2023-04-21T16:15:25;20.40;43.70
5061;DHT22;2549;52.128;21.068;2023-04-21T16:17:52;20.30;44.30